Louisville, Kentucky
Current Conditions -  °F | °C
As of 7:56 AM on Thursday 30 Oct 2014 (Local Time) from KSDF Reporting Station
Few Clouds Few Clouds  
Wind Chill:   Ceiling: Unl
Heat Index:   Visibility: 10mi
Dew Point:   Wind: 0mph
Humidity: 82%   Direction: NA
Pressure: 30.17"   Gusts: NA
Location:  38.25°N, 85.77°W
Report Text: KSDF 301156Z 00000KT 10SM FEW050 05/02 A3017 RMK AO2 SLP219 T00500022 10078 20033 53007
Loading
Personal Weather Stations






























Interactive Weather Map
Tropical Storm Tracking
New forecast layout! Learn more

10-Day Weather Forecast

Advertisements
Track Severe Weather on mobile